sensor_id;sensor_type;location;lat;lon;timestamp;P1;durP1;ratioP1;P2;durP2;ratioP2
83059;SDS011;72884;44.366;3.426;2023-12-20T00:01:21;1.58;;;1.15;;
83059;SDS011;72884;44.366;3.426;2023-12-20T00:03:46;1.60;;;1.40;;
83059;SDS011;72884;44.366;3.426;2023-12-20T00:06:12;1.23;;;1.10;;
83059;SDS011;72884;44.366;3.426;2023-12-20T00:08:37;1.42;;;1.10;;
83059;SDS011;72884;44.366;3.426;2023-12-20T00:11:03;1.83;;;1.23;;
83059;SDS011;72884;44.366;3.426;2023-12-20T00:13:28;1.48;;;1.30;;
83059;SDS011;72884;44.366;3.426;2023-12-20T00:15:53;1.08;;;0.98;;
83059;SDS011;72884;44.366;3.426;2023-12-20T00:18:19;2.15;;;1.15;;
83059;SDS011;72884;44.366;3.426;2023-12-20T00:20:44;1.52;;;1.10;;
83059;SDS011;72884;44.366;3.426;2023-12-20T00:23:09;1.10;;;1.00;;
83059;SDS011;72884;44.366;3.426;2023-12-20T00:25:35;1.42;;;1.10;;
83059;SDS011;72884;44.366;3.426;2023-12-20T00:28:00;1.20;;;1.10;;
83059;SDS011;72884;44.366;3.426;2023-12-20T00:30:26;1.13;;;0.90;;
83059;SDS011;72884;44.366;3.426;2023-12-20T00:32:51;1.30;;;1.20;;
83059;SDS011;72884;44.366;3.426;2023-12-20T00:35:16;1.30;;;1.10;;
83059;SDS011;72884;44.366;3.426;2023-12-20T00:37:42;1.17;;;1.08;;
83059;SDS011;72884;44.366;3.426;2023-12-20T00:40:08;1.73;;;1.30;;
83059;SDS011;72884;44.366;3.426;2023-12-20T00:42:34;2.75;;;1.13;;
83059;SDS011;72884;44.366;3.426;2023-12-20T00:45:00;1.25;;;1.15;;
83059;SDS011;72884;44.366;3.426;2023-12-20T00:47:26;1.20;;;1.10;;
83059;SDS011;72884;44.366;3.426;2023-12-20T00:49:51;1.10;;;1.00;;
83059;SDS011;72884;44.366;3.426;2023-12-20T00:52:18;1.10;;;1.00;;
83059;SDS011;72884;44.366;3.426;2023-12-20T00:54:44;1.30;;;1.20;;
83059;SDS011;72884;44.366;3.426;2023-12-20T00:57:10;1.02;;;1.00;;
83059;SDS011;72884;44.366;3.426;2023-12-20T00:59:35;1.23;;;1.00;;
83059;SDS011;72884;44.366;3.426;2023-12-20T01:02:01;2.50;;;1.40;;
83059;SDS011;72884;44.366;3.426;2023-12-20T01:04:26;1.45;;;0.90;;
83059;SDS011;72884;44.366;3.426;2023-12-20T01:06:52;1.00;;;0.90;;
83059;SDS011;72884;44.366;3.426;2023-12-20T01:09:18;1.70;;;1.08;;
83059;SDS011;72884;44.366;3.426;2023-12-20T01:11:43;1.10;;;1.00;;
83059;SDS011;72884;44.366;3.426;2023-12-20T01:14:09;1.80;;;1.30;;
83059;SDS011;72884;44.366;3.426;2023-12-20T01:16:34;1.23;;;0.93;;
83059;SDS011;72884;44.366;3.426;2023-12-20T01:19:00;1.85;;;1.00;;
83059;SDS011;72884;44.366;3.426;2023-12-20T01:21:25;1.20;;;1.10;;
83059;SDS011;72884;44.366;3.426;2023-12-20T01:23:50;1.20;;;0.93;;
83059;SDS011;72884;44.366;3.426;2023-12-20T01:26:16;0.95;;;0.88;;
83059;SDS011;72884;44.366;3.426;2023-12-20T01:28:42;1.27;;;1.08;;
83059;SDS011;72884;44.366;3.426;2023-12-20T01:31:08;0.70;;;0.70;;
83059;SDS011;72884;44.366;3.426;2023-12-20T01:33:33;1.10;;;1.00;;
83059;SDS011;72884;44.366;3.426;2023-12-20T01:35:58;2.90;;;0.70;;
83059;SDS011;72884;44.366;3.426;2023-12-20T01:38:24;1.08;;;0.98;;
83059;SDS011;72884;44.366;3.426;2023-12-20T01:40:50;1.17;;;1.08;;
83059;SDS011;72884;44.366;3.426;2023-12-20T01:43:15;2.03;;;0.90;;
83059;SDS011;72884;44.366;3.426;2023-12-20T01:45:40;0.93;;;0.90;;
83059;SDS011;72884;44.366;3.426;2023-12-20T01:48:06;1.10;;;0.82;;
83059;SDS011;72884;44.366;3.426;2023-12-20T01:50:33;1.67;;;1.00;;
83059;SDS011;72884;44.366;3.426;2023-12-20T01:53:03;0.80;;;0.80;;
83059;SDS011;72884;44.366;3.426;2023-12-20T01:55:31;1.25;;;0.80;;
83059;SDS011;72884;44.366;3.426;2023-12-20T01:57:58;0.68;;;0.68;;
83059;SDS011;72884;44.366;3.426;2023-12-20T02:00:25;0.80;;;0.80;;
83059;SDS011;72884;44.366;3.426;2023-12-20T02:02:52;1.17;;;0.98;;
83059;SDS011;72884;44.366;3.426;2023-12-20T02:05:18;1.15;;;0.80;;
83059;SDS011;72884;44.366;3.426;2023-12-20T02:07:44;1.20;;;0.95;;
83059;SDS011;72884;44.366;3.426;2023-12-20T02:10:09;0.80;;;0.80;;
83059;SDS011;72884;44.366;3.426;2023-12-20T02:12:35;0.82;;;0.80;;
83059;SDS011;72884;44.366;3.426;2023-12-20T02:15:00;1.00;;;1.00;;
83059;SDS011;72884;44.366;3.426;2023-12-20T02:17:26;1.00;;;0.85;;
83059;SDS011;72884;44.366;3.426;2023-12-20T02:19:52;0.80;;;0.80;;
83059;SDS011;72884;44.366;3.426;2023-12-20T02:22:18;1.00;;;0.90;;
83059;SDS011;72884;44.366;3.426;2023-12-20T02:24:43;1.00;;;0.80;;
83059;SDS011;72884;44.366;3.426;2023-12-20T02:27:08;1.00;;;1.00;;
83059;SDS011;72884;44.366;3.426;2023-12-20T02:29:34;0.93;;;0.90;;
83059;SDS011;72884;44.366;3.426;2023-12-20T02:32:00;1.10;;;0.82;;
83059;SDS011;72884;44.366;3.426;2023-12-20T02:34:25;1.77;;;0.90;;
83059;SDS011;72884;44.366;3.426;2023-12-20T02:36:51;0.90;;;0.90;;
83059;SDS011;72884;44.366;3.426;2023-12-20T02:39:16;0.57;;;0.57;;
83059;SDS011;72884;44.366;3.426;2023-12-20T02:41:42;1.15;;;0.88;;
83059;SDS011;72884;44.366;3.426;2023-12-20T02:44:07;0.70;;;0.70;;
83059;SDS011;72884;44.366;3.426;2023-12-20T02:46:33;0.73;;;0.73;;
83059;SDS011;72884;44.366;3.426;2023-12-20T02:48:58;0.90;;;0.90;;
83059;SDS011;72884;44.366;3.426;2023-12-20T02:51:23;1.25;;;0.88;;
83059;SDS011;72884;44.366;3.426;2023-12-20T02:53:49;1.70;;;1.00;;
83059;SDS011;72884;44.366;3.426;2023-12-20T02:56:14;0.93;;;0.93;;
83059;SDS011;72884;44.366;3.426;2023-12-20T02:58:40;0.82;;;0.77;;
83059;SDS011;72884;44.366;3.426;2023-12-20T03:01:05;0.70;;;0.70;;
83059;SDS011;72884;44.366;3.426;2023-12-20T03:03:31;0.80;;;0.80;;
83059;SDS011;72884;44.366;3.426;2023-12-20T03:05:56;0.70;;;0.70;;
83059;SDS011;72884;44.366;3.426;2023-12-20T03:08:22;0.80;;;0.80;;
83059;SDS011;72884;44.366;3.426;2023-12-20T03:10:47;0.70;;;0.70;;
83059;SDS011;72884;44.366;3.426;2023-12-20T03:13:13;0.80;;;0.80;;
83059;SDS011;72884;44.366;3.426;2023-12-20T03:15:38;0.80;;;0.80;;
83059;SDS011;72884;44.366;3.426;2023-12-20T03:18:04;0.77;;;0.77;;
83059;SDS011;72884;44.366;3.426;2023-12-20T03:20:29;0.85;;;0.85;;
83059;SDS011;72884;44.366;3.426;2023-12-20T03:22:58;0.75;;;0.75;;
83059;SDS011;72884;44.366;3.426;2023-12-20T03:25:23;0.75;;;0.75;;
83059;SDS011;72884;44.366;3.426;2023-12-20T03:27:49;1.02;;;1.00;;
83059;SDS011;72884;44.366;3.426;2023-12-20T03:30:14;0.80;;;0.80;;
83059;SDS011;72884;44.366;3.426;2023-12-20T03:32:39;0.70;;;0.70;;
83059;SDS011;72884;44.366;3.426;2023-12-20T03:35:05;0.60;;;0.60;;
83059;SDS011;72884;44.366;3.426;2023-12-20T03:37:31;0.75;;;0.75;;
83059;SDS011;72884;44.366;3.426;2023-12-20T03:39:56;0.80;;;0.80;;
83059;SDS011;72884;44.366;3.426;2023-12-20T03:42:21;0.80;;;0.80;;
83059;SDS011;72884;44.366;3.426;2023-12-20T03:44:47;0.73;;;0.68;;
83059;SDS011;72884;44.366;3.426;2023-12-20T03:47:12;0.70;;;0.70;;
83059;SDS011;72884;44.366;3.426;2023-12-20T03:49:38;0.80;;;0.80;;
83059;SDS011;72884;44.366;3.426;2023-12-20T03:52:04;0.90;;;0.90;;
83059;SDS011;72884;44.366;3.426;2023-12-20T03:54:29;0.82;;;0.80;;
83059;SDS011;72884;44.366;3.426;2023-12-20T03:56:55;0.68;;;0.68;;
83059;SDS011;72884;44.366;3.426;2023-12-20T03:59:20;0.73;;;0.73;;
83059;SDS011;72884;44.366;3.426;2023-12-20T04:01:46;0.95;;;0.95;;
83059;SDS011;72884;44.366;3.426;2023-12-20T04:04:13;0.60;;;0.60;;
83059;SDS011;72884;44.366;3.426;2023-12-20T04:06:38;0.88;;;0.88;;
83059;SDS011;72884;44.366;3.426;2023-12-20T04:09:04;0.70;;;0.63;;
83059;SDS011;72884;44.366;3.426;2023-12-20T04:11:29;0.70;;;0.70;;
83059;SDS011;72884;44.366;3.426;2023-12-20T04:13:55;0.57;;;0.55;;
83059;SDS011;72884;44.366;3.426;2023-12-20T04:16:20;0.70;;;0.70;;
83059;SDS011;72884;44.366;3.426;2023-12-20T04:18:46;0.85;;;0.85;;
83059;SDS011;72884;44.366;3.426;2023-12-20T04:21:11;0.60;;;0.60;;
83059;SDS011;72884;44.366;3.426;2023-12-20T04:23:36;0.75;;;0.70;;
83059;SDS011;72884;44.366;3.426;2023-12-20T04:26:02;0.68;;;0.68;;
83059;SDS011;72884;44.366;3.426;2023-12-20T04:28:27;0.73;;;0.73;;
83059;SDS011;72884;44.366;3.426;2023-12-20T04:30:55;0.70;;;0.70;;
83059;SDS011;72884;44.366;3.426;2023-12-20T04:33:21;0.80;;;0.80;;
83059;SDS011;72884;44.366;3.426;2023-12-20T04:39:08;0.70;;;0.70;;
83059;SDS011;72884;44.366;3.426;2023-12-20T04:41:33;0.50;;;0.50;;
83059;SDS011;72884;44.366;3.426;2023-12-20T04:43:59;0.65;;;0.65;;
83059;SDS011;72884;44.366;3.426;2023-12-20T04:46:25;0.80;;;0.80;;
83059;SDS011;72884;44.366;3.426;2023-12-20T04:48:51;0.65;;;0.65;;
83059;SDS011;72884;44.366;3.426;2023-12-20T04:51:16;0.60;;;0.60;;
83059;SDS011;72884;44.366;3.426;2023-12-20T04:53:41;0.80;;;0.80;;
83059;SDS011;72884;44.366;3.426;2023-12-20T04:56:07;0.70;;;0.70;;
83059;SDS011;72884;44.366;3.426;2023-12-20T04:58:32;1.27;;;0.70;;
83059;SDS011;72884;44.366;3.426;2023-12-20T05:00:57;0.85;;;0.85;;
83059;SDS011;72884;44.366;3.426;2023-12-20T05:03:23;0.70;;;0.70;;
83059;SDS011;72884;44.366;3.426;2023-12-20T05:05:48;0.73;;;0.65;;
83059;SDS011;72884;44.366;3.426;2023-12-20T05:08:14;0.60;;;0.60;;
83059;SDS011;72884;44.366;3.426;2023-12-20T05:10:40;0.57;;;0.57;;
83059;SDS011;72884;44.366;3.426;2023-12-20T05:13:05;1.08;;;0.70;;
83059;SDS011;72884;44.366;3.426;2023-12-20T05:15:31;0.60;;;0.60;;
83059;SDS011;72884;44.366;3.426;2023-12-20T05:17:56;0.82;;;0.82;;
83059;SDS011;72884;44.366;3.426;2023-12-20T05:20:22;0.63;;;0.63;;
83059;SDS011;72884;44.366;3.426;2023-12-20T05:23:24;0.65;;;0.60;;
83059;SDS011;72884;44.366;3.426;2023-12-20T05:25:50;0.50;;;0.50;;
83059;SDS011;72884;44.366;3.426;2023-12-20T05:28:15;0.70;;;0.70;;
83059;SDS011;72884;44.366;3.426;2023-12-20T05:30:41;0.50;;;0.50;;
83059;SDS011;72884;44.366;3.426;2023-12-20T05:33:06;0.50;;;0.50;;
83059;SDS011;72884;44.366;3.426;2023-12-20T05:35:32;0.65;;;0.50;;
83059;SDS011;72884;44.366;3.426;2023-12-20T05:41:09;0.60;;;0.60;;
83059;SDS011;72884;44.366;3.426;2023-12-20T05:43:35;0.60;;;0.60;;
83059;SDS011;72884;44.366;3.426;2023-12-20T05:53:00;0.60;;;0.60;;
83059;SDS011;72884;44.366;3.426;2023-12-20T05:58:40;0.60;;;0.60;;
83059;SDS011;72884;44.366;3.426;2023-12-20T06:01:15;0.60;;;0.60;;
83059;SDS011;72884;44.366;3.426;2023-12-20T06:03:47;0.52;;;0.52;;
83059;SDS011;72884;44.366;3.426;2023-12-20T06:06:13;0.70;;;0.50;;
83059;SDS011;72884;44.366;3.426;2023-12-20T06:19:37;0.60;;;0.60;;
83059;SDS011;72884;44.366;3.426;2023-12-20T06:22:12;0.50;;;0.50;;
83059;SDS011;72884;44.366;3.426;2023-12-20T06:31:14;0.50;;;0.50;;
83059;SDS011;72884;44.366;3.426;2023-12-20T06:33:39;0.60;;;0.60;;
83059;SDS011;72884;44.366;3.426;2023-12-20T06:36:20;0.73;;;0.70;;
83059;SDS011;72884;44.366;3.426;2023-12-20T06:42:13;0.50;;;0.50;;
83059;SDS011;72884;44.366;3.426;2023-12-20T06:44:39;0.57;;;0.57;;
83059;SDS011;72884;44.366;3.426;2023-12-20T06:47:05;0.50;;;0.50;;
83059;SDS011;72884;44.366;3.426;2023-12-20T06:49:30;0.40;;;0.40;;
83059;SDS011;72884;44.366;3.426;2023-12-20T06:51:55;0.50;;;0.50;;
83059;SDS011;72884;44.366;3.426;2023-12-20T06:54:21;0.50;;;0.50;;
83059;SDS011;72884;44.366;3.426;2023-12-20T06:56:46;0.50;;;0.50;;
83059;SDS011;72884;44.366;3.426;2023-12-20T06:59:11;1.00;;;0.50;;
83059;SDS011;72884;44.366;3.426;2023-12-20T07:01:37;0.40;;;0.40;;
83059;SDS011;72884;44.366;3.426;2023-12-20T07:04:03;0.47;;;0.47;;
83059;SDS011;72884;44.366;3.426;2023-12-20T07:06:28;0.40;;;0.40;;
83059;SDS011;72884;44.366;3.426;2023-12-20T07:08:54;3.53;;;0.40;;
83059;SDS011;72884;44.366;3.426;2023-12-20T07:11:19;1.55;;;0.65;;
83059;SDS011;72884;44.366;3.426;2023-12-20T07:13:44;0.40;;;0.40;;
83059;SDS011;72884;44.366;3.426;2023-12-20T07:16:10;0.63;;;0.40;;
83059;SDS011;72884;44.366;3.426;2023-12-20T07:18:35;1.38;;;0.40;;
83059;SDS011;72884;44.366;3.426;2023-12-20T07:21:01;0.40;;;0.40;;
83059;SDS011;72884;44.366;3.426;2023-12-20T07:23:26;0.80;;;0.43;;
83059;SDS011;72884;44.366;3.426;2023-12-20T07:25:52;0.52;;;0.32;;
83059;SDS011;72884;44.366;3.426;2023-12-20T07:28:17;0.40;;;0.40;;
83059;SDS011;72884;44.366;3.426;2023-12-20T07:30:42;0.82;;;0.52;;
83059;SDS011;72884;44.366;3.426;2023-12-20T07:33:08;0.57;;;0.40;;
83059;SDS011;72884;44.366;3.426;2023-12-20T07:35:34;0.45;;;0.45;;
83059;SDS011;72884;44.366;3.426;2023-12-20T07:38:00;0.50;;;0.40;;
83059;SDS011;72884;44.366;3.426;2023-12-20T07:40:25;0.73;;;0.30;;
83059;SDS011;72884;44.366;3.426;2023-12-20T07:42:50;0.40;;;0.40;;
83059;SDS011;72884;44.366;3.426;2023-12-20T07:45:16;0.80;;;0.60;;
83059;SDS011;72884;44.366;3.426;2023-12-20T07:47:41;0.45;;;0.45;;
83059;SDS011;72884;44.366;3.426;2023-12-20T07:50:07;0.40;;;0.40;;
83059;SDS011;72884;44.366;3.426;2023-12-20T07:52:32;0.47;;;0.40;;
83059;SDS011;72884;44.366;3.426;2023-12-20T07:54:57;0.80;;;0.40;;
83059;SDS011;72884;44.366;3.426;2023-12-20T07:57:23;0.70;;;0.43;;
83059;SDS011;72884;44.366;3.426;2023-12-20T07:59:48;0.25;;;0.25;;
83059;SDS011;72884;44.366;3.426;2023-12-20T08:02:14;0.45;;;0.40;;
83059;SDS011;72884;44.366;3.426;2023-12-20T08:04:40;0.63;;;0.57;;
83059;SDS011;72884;44.366;3.426;2023-12-20T08:07:06;0.25;;;0.25;;
83059;SDS011;72884;44.366;3.426;2023-12-20T08:09:31;1.58;;;0.50;;
83059;SDS011;72884;44.366;3.426;2023-12-20T08:11:58;0.75;;;0.68;;
83059;SDS011;72884;44.366;3.426;2023-12-20T08:14:24;0.43;;;0.43;;
83059;SDS011;72884;44.366;3.426;2023-12-20T08:16:50;0.30;;;0.30;;
83059;SDS011;72884;44.366;3.426;2023-12-20T08:19:15;0.40;;;0.40;;
83059;SDS011;72884;44.366;3.426;2023-12-20T08:21:41;0.50;;;0.50;;
83059;SDS011;72884;44.366;3.426;2023-12-20T08:24:06;0.50;;;0.50;;
83059;SDS011;72884;44.366;3.426;2023-12-20T08:26:32;0.50;;;0.50;;
83059;SDS011;72884;44.366;3.426;2023-12-20T08:28:58;0.40;;;0.40;;
83059;SDS011;72884;44.366;3.426;2023-12-20T08:31:23;0.40;;;0.40;;
83059;SDS011;72884;44.366;3.426;2023-12-20T08:33:49;4.13;;;0.52;;
83059;SDS011;72884;44.366;3.426;2023-12-20T08:36:15;1.70;;;0.50;;
83059;SDS011;72884;44.366;3.426;2023-12-20T08:38:42;0.50;;;0.30;;
83059;SDS011;72884;44.366;3.426;2023-12-20T08:41:08;0.40;;;0.40;;
83059;SDS011;72884;44.366;3.426;2023-12-20T08:43:34;0.40;;;0.40;;
83059;SDS011;72884;44.366;3.426;2023-12-20T08:46:00;1.40;;;0.47;;
83059;SDS011;72884;44.366;3.426;2023-12-20T08:48:25;0.32;;;0.32;;
83059;SDS011;72884;44.366;3.426;2023-12-20T08:50:50;1.27;;;0.52;;
83059;SDS011;72884;44.366;3.426;2023-12-20T08:53:17;2.35;;;0.63;;
83059;SDS011;72884;44.366;3.426;2023-12-20T08:55:43;0.52;;;0.40;;
83059;SDS011;72884;44.366;3.426;2023-12-20T08:58:09;0.50;;;0.30;;
83059;SDS011;72884;44.366;3.426;2023-12-20T09:00:34;0.80;;;0.30;;
83059;SDS011;72884;44.366;3.426;2023-12-20T09:03:01;1.08;;;0.50;;
83059;SDS011;72884;44.366;3.426;2023-12-20T09:05:27;0.55;;;0.55;;
83059;SDS011;72884;44.366;3.426;2023-12-20T09:07:52;0.50;;;0.50;;
83059;SDS011;72884;44.366;3.426;2023-12-20T09:10:18;0.45;;;0.45;;
83059;SDS011;72884;44.366;3.426;2023-12-20T09:12:47;4.03;;;0.40;;
83059;SDS011;72884;44.366;3.426;2023-12-20T09:15:16;1.15;;;0.43;;
83059;SDS011;72884;44.366;3.426;2023-12-20T09:17:41;0.45;;;0.45;;
83059;SDS011;72884;44.366;3.426;2023-12-20T09:20:07;0.43;;;0.43;;
83059;SDS011;72884;44.366;3.426;2023-12-20T09:22:33;1.55;;;0.50;;
83059;SDS011;72884;44.366;3.426;2023-12-20T09:24:59;0.40;;;0.40;;
83059;SDS011;72884;44.366;3.426;2023-12-20T09:27:24;0.47;;;0.43;;
83059;SDS011;72884;44.366;3.426;2023-12-20T09:29:50;0.57;;;0.50;;
83059;SDS011;72884;44.366;3.426;2023-12-20T09:32:15;2.47;;;0.50;;
83059;SDS011;72884;44.366;3.426;2023-12-20T09:34:41;0.40;;;0.40;;
83059;SDS011;72884;44.366;3.426;2023-12-20T09:37:06;0.40;;;0.40;;
83059;SDS011;72884;44.366;3.426;2023-12-20T09:39:32;0.40;;;0.40;;
83059;SDS011;72884;44.366;3.426;2023-12-20T09:42:02;0.40;;;0.40;;
83059;SDS011;72884;44.366;3.426;2023-12-20T09:44:29;1.83;;;0.47;;
83059;SDS011;72884;44.366;3.426;2023-12-20T09:46:55;3.38;;;0.50;;
83059;SDS011;72884;44.366;3.426;2023-12-20T09:49:22;0.50;;;0.50;;
83059;SDS011;72884;44.366;3.426;2023-12-20T09:51:48;0.40;;;0.40;;
83059;SDS011;72884;44.366;3.426;2023-12-20T09:54:15;0.38;;;0.30;;
83059;SDS011;72884;44.366;3.426;2023-12-20T09:56:42;1.35;;;0.40;;
83059;SDS011;72884;44.366;3.426;2023-12-20T09:59:07;0.73;;;0.38;;
83059;SDS011;72884;44.366;3.426;2023-12-20T10:01:33;2.17;;;0.50;;
83059;SDS011;72884;44.366;3.426;2023-12-20T10:03:59;0.75;;;0.30;;
83059;SDS011;72884;44.366;3.426;2023-12-20T10:06:25;0.93;;;0.40;;
83059;SDS011;72884;44.366;3.426;2023-12-20T10:08:51;1.17;;;0.40;;
83059;SDS011;72884;44.366;3.426;2023-12-20T10:11:17;0.65;;;0.40;;
83059;SDS011;72884;44.366;3.426;2023-12-20T10:13:44;0.60;;;0.40;;
83059;SDS011;72884;44.366;3.426;2023-12-20T10:16:12;0.43;;;0.40;;
83059;SDS011;72884;44.366;3.426;2023-12-20T10:18:37;2.55;;;0.50;;
83059;SDS011;72884;44.366;3.426;2023-12-20T10:21:03;0.43;;;0.32;;
83059;SDS011;72884;44.366;3.426;2023-12-20T10:23:29;0.32;;;0.32;;
83059;SDS011;72884;44.366;3.426;2023-12-20T10:25:59;0.65;;;0.40;;
83059;SDS011;72884;44.366;3.426;2023-12-20T10:28:24;0.50;;;0.50;;
83059;SDS011;72884;44.366;3.426;2023-12-20T10:30:53;1.38;;;0.50;;
83059;SDS011;72884;44.366;3.426;2023-12-20T10:33:24;0.40;;;0.40;;
83059;SDS011;72884;44.366;3.426;2023-12-20T10:35:51;1.00;;;0.38;;
83059;SDS011;72884;44.366;3.426;2023-12-20T10:38:17;0.40;;;0.40;;
83059;SDS011;72884;44.366;3.426;2023-12-20T10:40:42;0.30;;;0.30;;
83059;SDS011;72884;44.366;3.426;2023-12-20T10:43:10;1.10;;;0.40;;
83059;SDS011;72884;44.366;3.426;2023-12-20T10:45:36;0.30;;;0.30;;
83059;SDS011;72884;44.366;3.426;2023-12-20T10:48:01;0.32;;;0.32;;
83059;SDS011;72884;44.366;3.426;2023-12-20T10:50:28;0.75;;;0.52;;
83059;SDS011;72884;44.366;3.426;2023-12-20T10:52:55;0.70;;;0.35;;
83059;SDS011;72884;44.366;3.426;2023-12-20T10:55:23;0.50;;;0.50;;
83059;SDS011;72884;44.366;3.426;2023-12-20T10:57:50;0.85;;;0.40;;
83059;SDS011;72884;44.366;3.426;2023-12-20T11:00:17;0.85;;;0.40;;
83059;SDS011;72884;44.366;3.426;2023-12-20T11:02:43;0.30;;;0.30;;
83059;SDS011;72884;44.366;3.426;2023-12-20T11:07:46;0.60;;;0.30;;
83059;SDS011;72884;44.366;3.426;2023-12-20T11:10:18;0.97;;;0.40;;
83059;SDS011;72884;44.366;3.426;2023-12-20T11:15:11;4.75;;;0.52;;
83059;SDS011;72884;44.366;3.426;2023-12-20T11:17:38;0.80;;;0.50;;
83059;SDS011;72884;44.366;3.426;2023-12-20T11:20:06;2.30;;;0.30;;
83059;SDS011;72884;44.366;3.426;2023-12-20T11:22:33;0.35;;;0.35;;
83059;SDS011;72884;44.366;3.426;2023-12-20T11:25:04;0.63;;;0.38;;
83059;SDS011;72884;44.366;3.426;2023-12-20T11:27:33;1.00;;;0.30;;
83059;SDS011;72884;44.366;3.426;2023-12-20T11:29:59;3.70;;;0.40;;
83059;SDS011;72884;44.366;3.426;2023-12-20T11:34:55;0.50;;;0.30;;
83059;SDS011;72884;44.366;3.426;2023-12-20T11:37:20;3.33;;;0.30;;
83059;SDS011;72884;44.366;3.426;2023-12-20T11:39:54;2.42;;;0.40;;
83059;SDS011;72884;44.366;3.426;2023-12-20T11:42:20;1.25;;;0.38;;
83059;SDS011;72884;44.366;3.426;2023-12-20T11:44:45;0.63;;;0.20;;
83059;SDS011;72884;44.366;3.426;2023-12-20T11:47:12;0.47;;;0.30;;
83059;SDS011;72884;44.366;3.426;2023-12-20T11:49:38;0.50;;;0.40;;
83059;SDS011;72884;44.366;3.426;2023-12-20T11:52:04;1.05;;;0.30;;
83059;SDS011;72884;44.366;3.426;2023-12-20T11:54:30;0.63;;;0.47;;
83059;SDS011;72884;44.366;3.426;2023-12-20T11:56:55;3.05;;;0.30;;
83059;SDS011;72884;44.366;3.426;2023-12-20T11:59:21;0.55;;;0.28;;
83059;SDS011;72884;44.366;3.426;2023-12-20T12:01:49;1.58;;;0.30;;
83059;SDS011;72884;44.366;3.426;2023-12-20T12:04:15;0.40;;;0.40;;
83059;SDS011;72884;44.366;3.426;2023-12-20T12:06:42;0.30;;;0.30;;
83059;SDS011;72884;44.366;3.426;2023-12-20T12:09:08;1.63;;;0.40;;
83059;SDS011;72884;44.366;3.426;2023-12-20T12:11:33;2.08;;;0.40;;
83059;SDS011;72884;44.366;3.426;2023-12-20T12:13:59;0.30;;;0.30;;
83059;SDS011;72884;44.366;3.426;2023-12-20T12:16:24;1.13;;;0.32;;
83059;SDS011;72884;44.366;3.426;2023-12-20T12:18:56;2.20;;;0.30;;
83059;SDS011;72884;44.366;3.426;2023-12-20T12:21:22;0.28;;;0.22;;
83059;SDS011;72884;44.366;3.426;2023-12-20T12:23:48;3.30;;;0.50;;
83059;SDS011;72884;44.366;3.426;2023-12-20T12:26:13;1.88;;;0.40;;
83059;SDS011;72884;44.366;3.426;2023-12-20T12:28:42;1.83;;;0.40;;
83059;SDS011;72884;44.366;3.426;2023-12-20T12:31:08;1.17;;;0.40;;
83059;SDS011;72884;44.366;3.426;2023-12-20T12:33:40;2.75;;;0.50;;
83059;SDS011;72884;44.366;3.426;2023-12-20T12:36:06;1.65;;;0.35;;
83059;SDS011;72884;44.366;3.426;2023-12-20T12:38:33;1.75;;;0.40;;
83059;SDS011;72884;44.366;3.426;2023-12-20T12:40:59;0.35;;;0.30;;
83059;SDS011;72884;44.366;3.426;2023-12-20T12:43:25;3.35;;;0.82;;
83059;SDS011;72884;44.366;3.426;2023-12-20T12:45:51;0.35;;;0.28;;
83059;SDS011;72884;44.366;3.426;2023-12-20T12:48:16;0.88;;;0.40;;
83059;SDS011;72884;44.366;3.426;2023-12-20T12:50:42;0.85;;;0.30;;
83059;SDS011;72884;44.366;3.426;2023-12-20T12:53:07;2.90;;;0.50;;
83059;SDS011;72884;44.366;3.426;2023-12-20T12:55:33;0.52;;;0.40;;
83059;SDS011;72884;44.366;3.426;2023-12-20T12:57:59;0.85;;;0.40;;
83059;SDS011;72884;44.366;3.426;2023-12-20T13:00:25;0.80;;;0.38;;
83059;SDS011;72884;44.366;3.426;2023-12-20T13:02:51;1.77;;;0.40;;
83059;SDS011;72884;44.366;3.426;2023-12-20T13:05:16;2.72;;;0.40;;
83059;SDS011;72884;44.366;3.426;2023-12-20T13:09:34;0.75;;;0.40;;
83059;SDS011;72884;44.366;3.426;2023-12-20T13:12:00;3.80;;;0.50;;
83059;SDS011;72884;44.366;3.426;2023-12-20T13:14:28;2.20;;;0.50;;
83059;SDS011;72884;44.366;3.426;2023-12-20T13:16:53;0.68;;;0.30;;
83059;SDS011;72884;44.366;3.426;2023-12-20T13:19:19;2.42;;;0.40;;
83059;SDS011;72884;44.366;3.426;2023-12-20T13:21:44;2.70;;;0.40;;
83059;SDS011;72884;44.366;3.426;2023-12-20T13:24:09;1.17;;;0.40;;
83059;SDS011;72884;44.366;3.426;2023-12-20T13:26:35;1.60;;;0.50;;
83059;SDS011;72884;44.366;3.426;2023-12-20T13:29:01;3.35;;;0.40;;
83059;SDS011;72884;44.366;3.426;2023-12-20T13:31:26;3.80;;;0.50;;
83059;SDS011;72884;44.366;3.426;2023-12-20T13:33:51;1.77;;;0.40;;
83059;SDS011;72884;44.366;3.426;2023-12-20T13:36:17;1.08;;;0.45;;
83059;SDS011;72884;44.366;3.426;2023-12-20T13:38:43;1.65;;;0.73;;
83059;SDS011;72884;44.366;3.426;2023-12-20T13:41:08;5.00;;;0.40;;
83059;SDS011;72884;44.366;3.426;2023-12-20T13:43:34;1.33;;;0.50;;
83059;SDS011;72884;44.366;3.426;2023-12-20T13:45:59;1.35;;;0.55;;
83059;SDS011;72884;44.366;3.426;2023-12-20T13:48:25;1.10;;;0.65;;
83059;SDS011;72884;44.366;3.426;2023-12-20T13:50:50;0.52;;;0.40;;
83059;SDS011;72884;44.366;3.426;2023-12-20T13:53:16;2.55;;;0.70;;
83059;SDS011;72884;44.366;3.426;2023-12-20T13:55:41;0.90;;;0.40;;
83059;SDS011;72884;44.366;3.426;2023-12-20T13:58:07;2.83;;;0.60;;
83059;SDS011;72884;44.366;3.426;2023-12-20T14:00:32;2.90;;;0.50;;
83059;SDS011;72884;44.366;3.426;2023-12-20T14:02:57;0.60;;;0.38;;
83059;SDS011;72884;44.366;3.426;2023-12-20T14:05:23;1.20;;;0.60;;
83059;SDS011;72884;44.366;3.426;2023-12-20T14:07:49;0.68;;;0.35;;
83059;SDS011;72884;44.366;3.426;2023-12-20T14:10:15;1.08;;;0.47;;
83059;SDS011;72884;44.366;3.426;2023-12-20T14:12:40;0.55;;;0.30;;
83059;SDS011;72884;44.366;3.426;2023-12-20T14:15:06;2.05;;;0.40;;
83059;SDS011;72884;44.366;3.426;2023-12-20T14:17:39;6.15;;;0.50;;
83059;SDS011;72884;44.366;3.426;2023-12-20T14:20:05;0.95;;;0.32;;
83059;SDS011;72884;44.366;3.426;2023-12-20T14:22:32;4.30;;;0.30;;
83059;SDS011;72884;44.366;3.426;2023-12-20T14:24:57;1.15;;;0.40;;
83059;SDS011;72884;44.366;3.426;2023-12-20T14:27:22;1.35;;;0.40;;
83059;SDS011;72884;44.366;3.426;2023-12-20T14:29:49;2.15;;;0.40;;
83059;SDS011;72884;44.366;3.426;2023-12-20T14:32:15;0.73;;;0.32;;
83059;SDS011;72884;44.366;3.426;2023-12-20T14:34:41;1.35;;;0.38;;
83059;SDS011;72884;44.366;3.426;2023-12-20T14:37:06;1.30;;;0.40;;
83059;SDS011;72884;44.366;3.426;2023-12-20T14:39:31;1.23;;;0.40;;
83059;SDS011;72884;44.366;3.426;2023-12-20T14:41:57;0.82;;;0.30;;
83059;SDS011;72884;44.366;3.426;2023-12-20T14:44:22;0.55;;;0.47;;
83059;SDS011;72884;44.366;3.426;2023-12-20T14:46:48;0.68;;;0.30;;
83059;SDS011;72884;44.366;3.426;2023-12-20T14:49:13;1.02;;;0.50;;
83059;SDS011;72884;44.366;3.426;2023-12-20T14:51:39;0.93;;;0.35;;
83059;SDS011;72884;44.366;3.426;2023-12-20T14:54:05;0.45;;;0.20;;
83059;SDS011;72884;44.366;3.426;2023-12-20T14:56:34;1.90;;;0.43;;
83059;SDS011;72884;44.366;3.426;2023-12-20T14:59:00;0.30;;;0.30;;
83059;SDS011;72884;44.366;3.426;2023-12-20T15:01:25;0.88;;;0.40;;
83059;SDS011;72884;44.366;3.426;2023-12-20T15:03:51;2.30;;;0.43;;
83059;SDS011;72884;44.366;3.426;2023-12-20T15:06:16;0.50;;;0.50;;
83059;SDS011;72884;44.366;3.426;2023-12-20T15:08:41;2.72;;;0.40;;
83059;SDS011;72884;44.366;3.426;2023-12-20T15:11:07;1.77;;;0.60;;
83059;SDS011;72884;44.366;3.426;2023-12-20T15:13:32;1.48;;;0.73;;
83059;SDS011;72884;44.366;3.426;2023-12-20T15:15:58;1.55;;;0.40;;
83059;SDS011;72884;44.366;3.426;2023-12-20T15:18:23;0.43;;;0.30;;
83059;SDS011;72884;44.366;3.426;2023-12-20T15:20:49;0.80;;;0.40;;
83059;SDS011;72884;44.366;3.426;2023-12-20T15:23:15;2.25;;;0.50;;
83059;SDS011;72884;44.366;3.426;2023-12-20T15:25:41;0.30;;;0.30;;
83059;SDS011;72884;44.366;3.426;2023-12-20T15:28:07;0.40;;;0.40;;